sensor_id;sensor_type;location;lat;lon;timestamp;P1;durP1;ratioP1;P2;durP2;ratioP2
2934;SDS011;2462;51.456;7.248;2022-12-07T00:00:40;34.47;;;22.40;;
2934;SDS011;2462;51.456;7.248;2022-12-07T00:03:06;36.83;;;21.60;;
2934;SDS011;2462;51.456;7.248;2022-12-07T00:05:31;33.33;;;22.93;;
2934;SDS011;2462;51.456;7.248;2022-12-07T00:07:57;31.50;;;20.80;;
2934;SDS011;2462;51.456;7.248;2022-12-07T00:10:22;32.40;;;22.43;;
2934;SDS011;2462;51.456;7.248;2022-12-07T00:12:48;34.43;;;22.00;;
2934;SDS011;2462;51.456;7.248;2022-12-07T00:15:13;33.07;;;21.70;;
2934;SDS011;2462;51.456;7.248;2022-12-07T00:17:39;32.77;;;21.20;;
2934;SDS011;2462;51.456;7.248;2022-12-07T00:20:05;33.33;;;21.83;;
2934;SDS011;2462;51.456;7.248;2022-12-07T00:22:31;42.97;;;22.20;;
2934;SDS011;2462;51.456;7.248;2022-12-07T00:24:56;30.60;;;19.63;;
2934;SDS011;2462;51.456;7.248;2022-12-07T00:27:21;32.47;;;21.07;;
2934;SDS011;2462;51.456;7.248;2022-12-07T00:29:47;32.30;;;20.30;;
2934;SDS011;2462;51.456;7.248;2022-12-07T00:32:12;32.03;;;21.17;;
2934;SDS011;2462;51.456;7.248;2022-12-07T00:34:38;33.47;;;21.00;;
2934;SDS011;2462;51.456;7.248;2022-12-07T00:37:03;32.73;;;19.90;;
2934;SDS011;2462;51.456;7.248;2022-12-07T00:39:29;39.90;;;22.40;;
2934;SDS011;2462;51.456;7.248;2022-12-07T00:41:54;34.20;;;20.57;;
2934;SDS011;2462;51.456;7.248;2022-12-07T00:44:20;30.27;;;19.67;;
2934;SDS011;2462;51.456;7.248;2022-12-07T00:46:46;32.77;;;21.27;;
2934;SDS011;2462;51.456;7.248;2022-12-07T00:49:11;30.20;;;19.43;;
2934;SDS011;2462;51.456;7.248;2022-12-07T00:51:37;35.20;;;20.17;;
2934;SDS011;2462;51.456;7.248;2022-12-07T00:54:02;33.40;;;20.87;;
2934;SDS011;2462;51.456;7.248;2022-12-07T00:56:29;31.63;;;19.37;;
2934;SDS011;2462;51.456;7.248;2022-12-07T00:59:01;36.87;;;20.53;;
2934;SDS011;2462;51.456;7.248;2022-12-07T01:01:29;32.93;;;18.33;;
2934;SDS011;2462;51.456;7.248;2022-12-07T01:03:57;30.60;;;21.27;;
2934;SDS011;2462;51.456;7.248;2022-12-07T01:06:23;34.97;;;22.80;;
2934;SDS011;2462;51.456;7.248;2022-12-07T01:08:49;27.80;;;19.10;;
2934;SDS011;2462;51.456;7.248;2022-12-07T01:11:16;36.17;;;21.90;;
2934;SDS011;2462;51.456;7.248;2022-12-07T01:13:43;34.73;;;20.60;;
2934;SDS011;2462;51.456;7.248;2022-12-07T01:16:09;30.10;;;21.23;;
2934;SDS011;2462;51.456;7.248;2022-12-07T01:18:38;35.33;;;20.70;;
2934;SDS011;2462;51.456;7.248;2022-12-07T01:21:05;31.23;;;21.60;;
2934;SDS011;2462;51.456;7.248;2022-12-07T01:23:39;31.20;;;21.17;;
2934;SDS011;2462;51.456;7.248;2022-12-07T01:26:06;34.80;;;21.80;;
2934;SDS011;2462;51.456;7.248;2022-12-07T01:28:34;35.10;;;21.63;;
2934;SDS011;2462;51.456;7.248;2022-12-07T01:31:04;36.87;;;21.87;;
2934;SDS011;2462;51.456;7.248;2022-12-07T01:33:37;38.90;;;23.80;;
2934;SDS011;2462;51.456;7.248;2022-12-07T01:36:08;37.27;;;23.37;;
2934;SDS011;2462;51.456;7.248;2022-12-07T01:38:39;41.77;;;25.23;;
2934;SDS011;2462;51.456;7.248;2022-12-07T01:41:05;42.97;;;24.53;;
2934;SDS011;2462;51.456;7.248;2022-12-07T01:43:32;47.63;;;26.60;;
2934;SDS011;2462;51.456;7.248;2022-12-07T01:45:58;37.23;;;23.83;;
2934;SDS011;2462;51.456;7.248;2022-12-07T01:48:26;37.20;;;24.50;;
2934;SDS011;2462;51.456;7.248;2022-12-07T01:50:55;42.60;;;25.50;;
2934;SDS011;2462;51.456;7.248;2022-12-07T01:53:25;40.87;;;24.40;;
2934;SDS011;2462;51.456;7.248;2022-12-07T01:55:54;36.30;;;23.07;;
2934;SDS011;2462;51.456;7.248;2022-12-07T01:58:23;37.90;;;24.60;;
2934;SDS011;2462;51.456;7.248;2022-12-07T02:00:49;39.03;;;23.37;;
2934;SDS011;2462;51.456;7.248;2022-12-07T02:03:16;39.47;;;24.13;;
2934;SDS011;2462;51.456;7.248;2022-12-07T02:05:51;46.10;;;25.13;;
2934;SDS011;2462;51.456;7.248;2022-12-07T02:08:19;38.83;;;25.83;;
2934;SDS011;2462;51.456;7.248;2022-12-07T02:10:45;37.73;;;24.50;;
2934;SDS011;2462;51.456;7.248;2022-12-07T02:13:13;42.83;;;23.87;;
2934;SDS011;2462;51.456;7.248;2022-12-07T02:22:00;37.43;;;22.90;;
2934;SDS011;2462;51.456;7.248;2022-12-07T02:24:54;38.40;;;24.33;;
2934;SDS011;2462;51.456;7.248;2022-12-07T02:27:52;36.30;;;21.70;;
2934;SDS011;2462;51.456;7.248;2022-12-07T02:30:26;38.60;;;22.63;;
2934;SDS011;2462;51.456;7.248;2022-12-07T02:33:16;30.83;;;20.47;;
2934;SDS011;2462;51.456;7.248;2022-12-07T02:35:49;39.60;;;22.07;;
2934;SDS011;2462;51.456;7.248;2022-12-07T02:40:50;38.77;;;21.50;;
2934;SDS011;2462;51.456;7.248;2022-12-07T02:43:21;34.93;;;21.70;;
2934;SDS011;2462;51.456;7.248;2022-12-07T02:45:51;36.00;;;20.90;;
2934;SDS011;2462;51.456;7.248;2022-12-07T02:48:19;36.33;;;21.03;;
2934;SDS011;2462;51.456;7.248;2022-12-07T02:50:49;32.67;;;19.47;;
2934;SDS011;2462;51.456;7.248;2022-12-07T02:53:29;36.57;;;20.50;;
2934;SDS011;2462;51.456;7.248;2022-12-07T02:56:46;27.50;;;19.40;;
2934;SDS011;2462;51.456;7.248;2022-12-07T03:02:17;34.77;;;19.33;;
2934;SDS011;2462;51.456;7.248;2022-12-07T03:05:19;34.50;;;19.70;;
2934;SDS011;2462;51.456;7.248;2022-12-07T03:07:55;34.23;;;19.77;;
2934;SDS011;2462;51.456;7.248;2022-12-07T03:10:54;31.50;;;20.37;;
2934;SDS011;2462;51.456;7.248;2022-12-07T03:19:10;32.10;;;19.30;;
2934;SDS011;2462;51.456;7.248;2022-12-07T03:21:40;31.77;;;19.50;;
2934;SDS011;2462;51.456;7.248;2022-12-07T03:24:15;34.77;;;20.80;;
2934;SDS011;2462;51.456;7.248;2022-12-07T03:26:46;32.93;;;20.63;;
2934;SDS011;2462;51.456;7.248;2022-12-07T03:29:22;40.80;;;23.50;;
2934;SDS011;2462;51.456;7.248;2022-12-07T03:31:57;37.33;;;22.50;;
2934;SDS011;2462;51.456;7.248;2022-12-07T03:34:40;31.20;;;20.17;;
2934;SDS011;2462;51.456;7.248;2022-12-07T03:37:17;34.00;;;19.80;;
2934;SDS011;2462;51.456;7.248;2022-12-07T03:40:06;27.40;;;19.53;;
2934;SDS011;2462;51.456;7.248;2022-12-07T03:42:38;37.07;;;20.27;;
2934;SDS011;2462;51.456;7.248;2022-12-07T03:45:05;32.40;;;20.60;;
2934;SDS011;2462;51.456;7.248;2022-12-07T03:50:08;29.37;;;19.57;;
2934;SDS011;2462;51.456;7.248;2022-12-07T03:53:29;32.50;;;18.57;;
2934;SDS011;2462;51.456;7.248;2022-12-07T03:55:39;28.80;;;19.03;;
2934;SDS011;2462;51.456;7.248;2022-12-07T03:58:09;40.23;;;18.43;;
2934;SDS011;2462;51.456;7.248;2022-12-07T04:00:39;27.63;;;18.67;;
2934;SDS011;2462;51.456;7.248;2022-12-07T04:03:06;31.13;;;19.97;;
2934;SDS011;2462;51.456;7.248;2022-12-07T04:05:32;32.87;;;18.40;;
2934;SDS011;2462;51.456;7.248;2022-12-07T04:07:57;28.67;;;18.37;;
2934;SDS011;2462;51.456;7.248;2022-12-07T04:10:23;29.03;;;19.50;;
2934;SDS011;2462;51.456;7.248;2022-12-07T04:12:48;32.83;;;18.90;;
2934;SDS011;2462;51.456;7.248;2022-12-07T04:15:14;27.40;;;18.00;;
2934;SDS011;2462;51.456;7.248;2022-12-07T04:17:39;27.10;;;17.57;;
2934;SDS011;2462;51.456;7.248;2022-12-07T04:20:05;26.93;;;18.30;;
2934;SDS011;2462;51.456;7.248;2022-12-07T04:22:32;33.10;;;17.80;;
2934;SDS011;2462;51.456;7.248;2022-12-07T04:24:57;25.50;;;16.50;;
2934;SDS011;2462;51.456;7.248;2022-12-07T04:27:23;28.87;;;17.93;;
2934;SDS011;2462;51.456;7.248;2022-12-07T04:29:48;28.00;;;17.90;;
2934;SDS011;2462;51.456;7.248;2022-12-07T04:32:14;21.93;;;16.60;;
2934;SDS011;2462;51.456;7.248;2022-12-07T04:34:39;26.97;;;16.60;;
2934;SDS011;2462;51.456;7.248;2022-12-07T04:37:05;25.10;;;16.17;;
2934;SDS011;2462;51.456;7.248;2022-12-07T04:39:31;27.50;;;16.40;;
2934;SDS011;2462;51.456;7.248;2022-12-07T04:41:57;35.40;;;16.43;;
2934;SDS011;2462;51.456;7.248;2022-12-07T04:44:24;27.30;;;17.27;;
2934;SDS011;2462;51.456;7.248;2022-12-07T04:46:51;29.93;;;16.23;;
2934;SDS011;2462;51.456;7.248;2022-12-07T04:49:17;26.10;;;15.83;;
2934;SDS011;2462;51.456;7.248;2022-12-07T04:51:44;31.50;;;16.80;;
2934;SDS011;2462;51.456;7.248;2022-12-07T04:54:10;26.70;;;16.20;;
2934;SDS011;2462;51.456;7.248;2022-12-07T04:56:36;22.50;;;15.43;;
2934;SDS011;2462;51.456;7.248;2022-12-07T04:59:02;32.47;;;17.20;;
2934;SDS011;2462;51.456;7.248;2022-12-07T05:01:28;28.73;;;15.80;;
2934;SDS011;2462;51.456;7.248;2022-12-07T05:03:54;26.40;;;16.57;;
2934;SDS011;2462;51.456;7.248;2022-12-07T05:06:19;35.83;;;17.73;;
2934;SDS011;2462;51.456;7.248;2022-12-07T05:08:45;30.43;;;16.40;;
2934;SDS011;2462;51.456;7.248;2022-12-07T05:11:10;22.40;;;15.30;;
2934;SDS011;2462;51.456;7.248;2022-12-07T05:13:57;27.67;;;15.70;;
2934;SDS011;2462;51.456;7.248;2022-12-07T05:16:22;26.40;;;15.80;;
2934;SDS011;2462;51.456;7.248;2022-12-07T05:18:48;30.50;;;16.20;;
2934;SDS011;2462;51.456;7.248;2022-12-07T05:21:14;25.90;;;15.17;;
2934;SDS011;2462;51.456;7.248;2022-12-07T05:23:39;23.23;;;14.70;;
2934;SDS011;2462;51.456;7.248;2022-12-07T05:26:05;31.33;;;14.83;;
2934;SDS011;2462;51.456;7.248;2022-12-07T05:28:30;29.93;;;17.10;;
2934;SDS011;2462;51.456;7.248;2022-12-07T05:30:56;23.20;;;15.80;;
2934;SDS011;2462;51.456;7.248;2022-12-07T05:33:21;33.10;;;16.43;;
2934;SDS011;2462;51.456;7.248;2022-12-07T05:35:47;28.27;;;15.73;;
2934;SDS011;2462;51.456;7.248;2022-12-07T05:38:12;27.10;;;16.37;;
2934;SDS011;2462;51.456;7.248;2022-12-07T05:40:38;29.40;;;17.23;;
2934;SDS011;2462;51.456;7.248;2022-12-07T05:43:03;26.53;;;14.80;;
2934;SDS011;2462;51.456;7.248;2022-12-07T05:45:29;26.63;;;17.40;;
2934;SDS011;2462;51.456;7.248;2022-12-07T05:47:54;23.93;;;15.27;;
2934;SDS011;2462;51.456;7.248;2022-12-07T05:50:20;24.77;;;15.13;;
2934;SDS011;2462;51.456;7.248;2022-12-07T05:52:45;24.60;;;14.73;;
2934;SDS011;2462;51.456;7.248;2022-12-07T05:55:11;24.23;;;16.20;;
2934;SDS011;2462;51.456;7.248;2022-12-07T05:57:36;20.27;;;15.33;;
2934;SDS011;2462;51.456;7.248;2022-12-07T06:00:03;22.87;;;15.87;;
2934;SDS011;2462;51.456;7.248;2022-12-07T06:02:29;27.90;;;15.57;;
2934;SDS011;2462;51.456;7.248;2022-12-07T06:04:54;25.07;;;15.20;;
2934;SDS011;2462;51.456;7.248;2022-12-07T06:07:20;27.83;;;15.97;;
2934;SDS011;2462;51.456;7.248;2022-12-07T06:09:45;21.47;;;13.40;;
2934;SDS011;2462;51.456;7.248;2022-12-07T06:12:11;22.20;;;15.23;;
2934;SDS011;2462;51.456;7.248;2022-12-07T06:14:56;25.93;;;16.00;;
2934;SDS011;2462;51.456;7.248;2022-12-07T06:17:22;23.60;;;15.23;;
2934;SDS011;2462;51.456;7.248;2022-12-07T06:19:47;25.17;;;15.50;;
2934;SDS011;2462;51.456;7.248;2022-12-07T06:22:13;26.90;;;15.87;;
2934;SDS011;2462;51.456;7.248;2022-12-07T06:24:40;30.20;;;17.53;;
2934;SDS011;2462;51.456;7.248;2022-12-07T06:27:06;24.70;;;16.10;;
2934;SDS011;2462;51.456;7.248;2022-12-07T06:29:32;25.67;;;15.50;;
2934;SDS011;2462;51.456;7.248;2022-12-07T06:31:57;27.10;;;15.73;;
2934;SDS011;2462;51.456;7.248;2022-12-07T06:34:23;23.43;;;15.43;;
2934;SDS011;2462;51.456;7.248;2022-12-07T06:36:51;22.53;;;16.17;;
2934;SDS011;2462;51.456;7.248;2022-12-07T06:39:19;26.67;;;15.30;;
2934;SDS011;2462;51.456;7.248;2022-12-07T06:41:45;25.07;;;15.43;;
2934;SDS011;2462;51.456;7.248;2022-12-07T06:44:12;24.13;;;15.87;;
2934;SDS011;2462;51.456;7.248;2022-12-07T06:46:37;23.73;;;15.30;;
2934;SDS011;2462;51.456;7.248;2022-12-07T06:49:04;20.90;;;14.80;;
2934;SDS011;2462;51.456;7.248;2022-12-07T06:51:30;26.50;;;15.33;;
2934;SDS011;2462;51.456;7.248;2022-12-07T06:54:01;26.87;;;14.90;;
2934;SDS011;2462;51.456;7.248;2022-12-07T06:56:29;21.30;;;13.70;;
2934;SDS011;2462;51.456;7.248;2022-12-07T06:58:55;22.47;;;14.30;;
2934;SDS011;2462;51.456;7.248;2022-12-07T07:01:21;24.73;;;15.73;;
2934;SDS011;2462;51.456;7.248;2022-12-07T07:03:46;22.03;;;13.67;;
2934;SDS011;2462;51.456;7.248;2022-12-07T07:06:12;24.00;;;14.07;;
2934;SDS011;2462;51.456;7.248;2022-12-07T07:08:38;22.27;;;14.90;;
2934;SDS011;2462;51.456;7.248;2022-12-07T07:11:04;29.90;;;14.67;;
2934;SDS011;2462;51.456;7.248;2022-12-07T07:13:31;24.10;;;14.37;;
2934;SDS011;2462;51.456;7.248;2022-12-07T07:15:57;20.47;;;15.17;;
2934;SDS011;2462;51.456;7.248;2022-12-07T07:18:23;20.97;;;13.77;;
2934;SDS011;2462;51.456;7.248;2022-12-07T07:20:50;20.37;;;12.77;;
2934;SDS011;2462;51.456;7.248;2022-12-07T07:23:16;25.40;;;13.57;;
2934;SDS011;2462;51.456;7.248;2022-12-07T07:25:41;18.03;;;12.30;;
2934;SDS011;2462;51.456;7.248;2022-12-07T07:28:07;23.40;;;13.10;;
2934;SDS011;2462;51.456;7.248;2022-12-07T07:30:33;18.47;;;12.90;;
2934;SDS011;2462;51.456;7.248;2022-12-07T07:32:58;25.30;;;13.70;;
2934;SDS011;2462;51.456;7.248;2022-12-07T07:35:30;20.67;;;13.53;;
2934;SDS011;2462;51.456;7.248;2022-12-07T07:37:57;19.63;;;12.53;;
2934;SDS011;2462;51.456;7.248;2022-12-07T07:40:22;17.67;;;12.77;;
2934;SDS011;2462;51.456;7.248;2022-12-07T07:42:48;19.03;;;12.57;;
2934;SDS011;2462;51.456;7.248;2022-12-07T07:45:14;21.20;;;12.13;;
2934;SDS011;2462;51.456;7.248;2022-12-07T07:47:40;22.27;;;13.10;;
2934;SDS011;2462;51.456;7.248;2022-12-07T07:50:06;16.50;;;11.73;;
2934;SDS011;2462;51.456;7.248;2022-12-07T07:52:32;19.20;;;11.43;;
2934;SDS011;2462;51.456;7.248;2022-12-07T07:54:57;19.53;;;11.90;;
2934;SDS011;2462;51.456;7.248;2022-12-07T07:57:23;17.83;;;11.90;;
2934;SDS011;2462;51.456;7.248;2022-12-07T07:59:48;15.97;;;10.50;;
2934;SDS011;2462;51.456;7.248;2022-12-07T08:02:15;17.93;;;11.50;;
2934;SDS011;2462;51.456;7.248;2022-12-07T08:04:41;17.60;;;11.47;;
2934;SDS011;2462;51.456;7.248;2022-12-07T08:07:07;16.27;;;11.20;;
2934;SDS011;2462;51.456;7.248;2022-12-07T08:09:33;21.00;;;12.70;;
2934;SDS011;2462;51.456;7.248;2022-12-07T08:11:58;24.77;;;12.40;;
2934;SDS011;2462;51.456;7.248;2022-12-07T08:14:24;15.00;;;11.80;;
2934;SDS011;2462;51.456;7.248;2022-12-07T08:16:49;17.07;;;12.10;;
2934;SDS011;2462;51.456;7.248;2022-12-07T08:19:15;22.73;;;12.17;;
2934;SDS011;2462;51.456;7.248;2022-12-07T08:21:41;20.23;;;11.57;;
2934;SDS011;2462;51.456;7.248;2022-12-07T08:24:07;19.73;;;11.63;;
2934;SDS011;2462;51.456;7.248;2022-12-07T08:26:32;26.73;;;12.97;;
2934;SDS011;2462;51.456;7.248;2022-12-07T08:28:58;20.90;;;12.33;;
2934;SDS011;2462;51.456;7.248;2022-12-07T08:31:24;23.23;;;11.20;;
2934;SDS011;2462;51.456;7.248;2022-12-07T08:33:50;20.67;;;11.60;;
2934;SDS011;2462;51.456;7.248;2022-12-07T08:36:16;19.10;;;11.40;;
2934;SDS011;2462;51.456;7.248;2022-12-07T08:38:42;16.87;;;11.03;;
2934;SDS011;2462;51.456;7.248;2022-12-07T08:41:08;20.10;;;12.10;;
2934;SDS011;2462;51.456;7.248;2022-12-07T08:43:34;17.00;;;9.97;;
2934;SDS011;2462;51.456;7.248;2022-12-07T08:46:05;21.30;;;12.00;;
2934;SDS011;2462;51.456;7.248;2022-12-07T08:48:45;16.00;;;10.80;;
2934;SDS011;2462;51.456;7.248;2022-12-07T08:51:13;18.57;;;11.00;;
2934;SDS011;2462;51.456;7.248;2022-12-07T08:53:39;15.87;;;11.00;;
2934;SDS011;2462;51.456;7.248;2022-12-07T08:56:06;20.40;;;11.27;;
2934;SDS011;2462;51.456;7.248;2022-12-07T08:58:33;20.13;;;11.27;;
2934;SDS011;2462;51.456;7.248;2022-12-07T09:01:00;16.07;;;10.37;;
2934;SDS011;2462;51.456;7.248;2022-12-07T09:03:25;19.90;;;11.23;;
2934;SDS011;2462;51.456;7.248;2022-12-07T09:05:52;17.37;;;10.87;;
2934;SDS011;2462;51.456;7.248;2022-12-07T09:08:19;16.70;;;11.37;;
2934;SDS011;2462;51.456;7.248;2022-12-07T09:10:45;14.33;;;10.13;;
2934;SDS011;2462;51.456;7.248;2022-12-07T09:13:11;16.20;;;10.63;;
2934;SDS011;2462;51.456;7.248;2022-12-07T09:15:36;15.37;;;11.37;;
2934;SDS011;2462;51.456;7.248;2022-12-07T09:18:02;19.00;;;10.87;;
2934;SDS011;2462;51.456;7.248;2022-12-07T09:20:28;13.50;;;9.80;;
2934;SDS011;2462;51.456;7.248;2022-12-07T09:22:53;14.70;;;10.03;;
2934;SDS011;2462;51.456;7.248;2022-12-07T09:25:20;14.53;;;10.50;;
2934;SDS011;2462;51.456;7.248;2022-12-07T09:27:45;19.43;;;10.20;;
2934;SDS011;2462;51.456;7.248;2022-12-07T09:30:11;20.10;;;11.00;;
2934;SDS011;2462;51.456;7.248;2022-12-07T09:32:36;15.60;;;10.73;;
2934;SDS011;2462;51.456;7.248;2022-12-07T09:35:02;19.73;;;10.13;;
2934;SDS011;2462;51.456;7.248;2022-12-07T09:37:28;17.23;;;10.20;;
2934;SDS011;2462;51.456;7.248;2022-12-07T09:39:53;27.03;;;12.23;;
2934;SDS011;2462;51.456;7.248;2022-12-07T09:44:56;24.63;;;13.53;;
2934;SDS011;2462;51.456;7.248;2022-12-07T09:47:23;22.30;;;13.83;;
2934;SDS011;2462;51.456;7.248;2022-12-07T09:49:49;23.60;;;14.87;;
2934;SDS011;2462;51.456;7.248;2022-12-07T09:52:17;22.87;;;14.50;;
2934;SDS011;2462;51.456;7.248;2022-12-07T09:54:46;24.00;;;13.80;;
2934;SDS011;2462;51.456;7.248;2022-12-07T09:57:14;23.10;;;14.77;;
2934;SDS011;2462;51.456;7.248;2022-12-07T09:59:40;31.27;;;17.20;;
2934;SDS011;2462;51.456;7.248;2022-12-07T10:05:01;23.57;;;15.20;;
2934;SDS011;2462;51.456;7.248;2022-12-07T10:07:29;23.10;;;14.53;;
2934;SDS011;2462;51.456;7.248;2022-12-07T10:09:55;23.80;;;13.10;;
2934;SDS011;2462;51.456;7.248;2022-12-07T10:12:20;20.63;;;14.20;;
2934;SDS011;2462;51.456;7.248;2022-12-07T10:14:53;19.97;;;13.90;;
2934;SDS011;2462;51.456;7.248;2022-12-07T10:17:30;25.20;;;13.13;;
2934;SDS011;2462;51.456;7.248;2022-12-07T10:22:38;21.40;;;13.43;;
2934;SDS011;2462;51.456;7.248;2022-12-07T10:25:20;18.23;;;12.27;;
2934;SDS011;2462;51.456;7.248;2022-12-07T10:27:57;16.03;;;11.20;;
2934;SDS011;2462;51.456;7.248;2022-12-07T10:30:24;18.60;;;11.60;;
2934;SDS011;2462;51.456;7.248;2022-12-07T10:32:50;19.27;;;11.53;;
2934;SDS011;2462;51.456;7.248;2022-12-07T10:35:29;21.03;;;12.30;;
2934;SDS011;2462;51.456;7.248;2022-12-07T10:37:55;15.90;;;11.80;;
2934;SDS011;2462;51.456;7.248;2022-12-07T10:40:35;16.60;;;10.80;;
2934;SDS011;2462;51.456;7.248;2022-12-07T10:43:05;16.80;;;11.70;;
2934;SDS011;2462;51.456;7.248;2022-12-07T10:48:38;13.60;;;10.00;;
2934;SDS011;2462;51.456;7.248;2022-12-07T10:51:27;14.83;;;9.50;;
2934;SDS011;2462;51.456;7.248;2022-12-07T10:54:12;14.50;;;9.67;;
2934;SDS011;2462;51.456;7.248;2022-12-07T11:02:25;14.10;;;8.80;;
2934;SDS011;2462;51.456;7.248;2022-12-07T11:05:49;15.67;;;9.77;;
2934;SDS011;2462;51.456;7.248;2022-12-07T11:13:56;15.63;;;9.60;;
2934;SDS011;2462;51.456;7.248;2022-12-07T11:19:06;17.23;;;9.27;;
2934;SDS011;2462;51.456;7.248;2022-12-07T11:21:57;13.80;;;9.23;;
2934;SDS011;2462;51.456;7.248;2022-12-07T11:27:07;19.57;;;9.73;;
2934;SDS011;2462;51.456;7.248;2022-12-07T11:29:59;17.27;;;9.73;;
2934;SDS011;2462;51.456;7.248;2022-12-07T11:32:39;17.30;;;8.80;;
2934;SDS011;2462;51.456;7.248;2022-12-07T11:37:42;13.97;;;8.23;;
2934;SDS011;2462;51.456;7.248;2022-12-07T11:40:14;20.03;;;9.17;;
2934;SDS011;2462;51.456;7.248;2022-12-07T11:42:42;13.50;;;8.30;;
2934;SDS011;2462;51.456;7.248;2022-12-07T11:45:18;15.27;;;7.77;;
2934;SDS011;2462;51.456;7.248;2022-12-07T11:47:58;14.70;;;7.40;;
2934;SDS011;2462;51.456;7.248;2022-12-07T11:50:33;11.07;;;6.93;;
2934;SDS011;2462;51.456;7.248;2022-12-07T11:55:43;11.70;;;6.77;;
2934;SDS011;2462;51.456;7.248;2022-12-07T11:58:22;11.10;;;7.13;;
2934;SDS011;2462;51.456;7.248;2022-12-07T12:03:36;14.70;;;6.97;;
2934;SDS011;2462;51.456;7.248;2022-12-07T12:06:05;11.73;;;8.17;;
2934;SDS011;2462;51.456;7.248;2022-12-07T12:08:33;13.00;;;6.83;;
2934;SDS011;2462;51.456;7.248;2022-12-07T12:16:40;12.90;;;6.63;;
2934;SDS011;2462;51.456;7.248;2022-12-07T12:19:26;10.90;;;6.30;;
2934;SDS011;2462;51.456;7.248;2022-12-07T12:21:54;5.63;;;4.97;;
2934;SDS011;2462;51.456;7.248;2022-12-07T12:24:26;14.67;;;4.90;;
2934;SDS011;2462;51.456;7.248;2022-12-07T12:27:02;9.90;;;5.07;;
2934;SDS011;2462;51.456;7.248;2022-12-07T12:29:40;6.87;;;4.27;;
2934;SDS011;2462;51.456;7.248;2022-12-07T12:32:16;13.77;;;4.57;;
2934;SDS011;2462;51.456;7.248;2022-12-07T12:50:22;13.10;;;6.03;;
2934;SDS011;2462;51.456;7.248;2022-12-07T12:52:55;8.70;;;5.17;;
2934;SDS011;2462;51.456;7.248;2022-12-07T13:00:45;10.77;;;5.50;;
2934;SDS011;2462;51.456;7.248;2022-12-07T13:03:29;8.73;;;5.73;;
2934;SDS011;2462;51.456;7.248;2022-12-07T13:08:44;11.73;;;4.43;;
2934;SDS011;2462;51.456;7.248;2022-12-07T13:11:31;8.63;;;3.90;;
2934;SDS011;2462;51.456;7.248;2022-12-07T13:17:04;8.40;;;5.40;;
2934;SDS011;2462;51.456;7.248;2022-12-07T13:24:58;11.10;;;5.63;;
2934;SDS011;2462;51.456;7.248;2022-12-07T13:27:32;11.47;;;6.40;;
2934;SDS011;2462;51.456;7.248;2022-12-07T13:29:59;15.33;;;8.97;;
2934;SDS011;2462;51.456;7.248;2022-12-07T13:32:26;17.83;;;7.20;;
2934;SDS011;2462;51.456;7.248;2022-12-07T13:34:54;12.60;;;7.40;;
2934;SDS011;2462;51.456;7.248;2022-12-07T13:37:21;11.57;;;6.83;;
2934;SDS011;2462;51.456;7.248;2022-12-07T13:39:54;13.73;;;6.97;;
2934;SDS011;2462;51.456;7.248;2022-12-07T13:42:25;10.17;;;6.90;;
2934;SDS011;2462;51.456;7.248;2022-12-07T13:44:52;21.70;;;7.77;;
2934;SDS011;2462;51.456;7.248;2022-12-07T13:47:20;50.37;;;27.77;;
2934;SDS011;2462;51.456;7.248;2022-12-07T13:50:00;98.43;;;55.80;;
2934;SDS011;2462;51.456;7.248;2022-12-07T13:52:27;60.87;;;36.73;;
2934;SDS011;2462;51.456;7.248;2022-12-07T13:54:58;37.30;;;23.80;;
2934;SDS011;2462;51.456;7.248;2022-12-07T13:57:24;29.77;;;17.57;;
2934;SDS011;2462;51.456;7.248;2022-12-07T13:59:51;24.13;;;15.43;;
2934;SDS011;2462;51.456;7.248;2022-12-07T14:02:18;21.10;;;13.73;;
2934;SDS011;2462;51.456;7.248;2022-12-07T14:04:46;18.23;;;10.70;;
2934;SDS011;2462;51.456;7.248;2022-12-07T14:07:18;13.27;;;9.00;;
2934;SDS011;2462;51.456;7.248;2022-12-07T14:10:04;19.07;;;9.97;;
2934;SDS011;2462;51.456;7.248;2022-12-07T14:12:31;14.03;;;9.33;;
2934;SDS011;2462;51.456;7.248;2022-12-07T14:15:00;18.20;;;10.50;;
2934;SDS011;2462;51.456;7.248;2022-12-07T14:17:27;16.67;;;9.17;;
2934;SDS011;2462;51.456;7.248;2022-12-07T14:24:46;10.67;;;5.93;;
2934;SDS011;2462;51.456;7.248;2022-12-07T14:27:22;8.70;;;5.67;;
2934;SDS011;2462;51.456;7.248;2022-12-07T14:29:50;7.23;;;6.13;;
2934;SDS011;2462;51.456;7.248;2022-12-07T14:32:21;7.50;;;5.57;;
2934;SDS011;2462;51.456;7.248;2022-12-07T14:35:01;5.40;;;4.60;;
2934;SDS011;2462;51.456;7.248;2022-12-07T14:37:38;6.67;;;5.10;;
2934;SDS011;2462;51.456;7.248;2022-12-07T14:40:05;5.07;;;4.57;;
2934;SDS011;2462;51.456;7.248;2022-12-07T14:42:32;8.90;;;4.70;;
2934;SDS011;2462;51.456;7.248;2022-12-07T14:44:59;7.33;;;4.60;;
2934;SDS011;2462;51.456;7.248;2022-12-07T14:47:25;7.37;;;4.73;;
2934;SDS011;2462;51.456;7.248;2022-12-07T14:49:51;19.07;;;7.63;;
2934;SDS011;2462;51.456;7.248;2022-12-07T14:52:19;24.23;;;15.10;;
2934;SDS011;2462;51.456;7.248;2022-12-07T14:54:48;24.57;;;14.07;;
2934;SDS011;2462;51.456;7.248;2022-12-07T14:57:13;15.70;;;10.30;;
2934;SDS011;2462;51.456;7.248;2022-12-07T14:59:39;13.43;;;9.00;;
2934;SDS011;2462;51.456;7.248;2022-12-07T15:02:05;12.90;;;8.20;;
2934;SDS011;2462;51.456;7.248;2022-12-07T15:04:31;10.83;;;7.37;;
2934;SDS011;2462;51.456;7.248;2022-12-07T15:06:58;11.53;;;7.00;;
2934;SDS011;2462;51.456;7.248;2022-12-07T15:09:25;9.70;;;7.63;;
2934;SDS011;2462;51.456;7.248;2022-12-07T15:11:51;8.67;;;6.80;;
2934;SDS011;2462;51.456;7.248;2022-12-07T15:14:16;9.97;;;5.87;;
2934;SDS011;2462;51.456;7.248;2022-12-07T15:16:42;11.60;;;7.40;;
2934;SDS011;2462;51.456;7.248;2022-12-07T15:19:12;15.60;;;6.80;;
2934;SDS011;2462;51.456;7.248;2022-12-07T15:21:43;9.40;;;6.57;;
2934;SDS011;2462;51.456;7.248;2022-12-07T15:24:10;9.57;;;6.80;;
2934;SDS011;2462;51.456;7.248;2022-12-07T15:26:36;7.93;;;6.27;;
2934;SDS011;2462;51.456;7.248;2022-12-07T15:29:03;15.47;;;7.00;;
2934;SDS011;2462;51.456;7.248;2022-12-07T15:31:28;7.80;;;5.30;;
2934;SDS011;2462;51.456;7.248;2022-12-07T15:33:54;8.53;;;6.07;;
2934;SDS011;2462;51.456;7.248;2022-12-07T15:36:21;6.80;;;5.10;;
2934;SDS011;2462;51.456;7.248;2022-12-07T15:38:49;10.00;;;6.00;;
2934;SDS011;2462;51.456;7.248;2022-12-07T15:41:16;8.70;;;5.60;;
2934;SDS011;2462;51.456;7.248;2022-12-07T15:43:42;9.47;;;5.70;;
2934;SDS011;2462;51.456;7.248;2022-12-07T15:46:33;6.63;;;5.73;;
2934;SDS011;2462;51.456;7.248;2022-12-07T15:49:00;11.07;;;6.10;;
2934;SDS011;2462;51.456;7.248;2022-12-07T15:51:26;9.00;;;5.57;;
2934;SDS011;2462;51.456;7.248;2022-12-07T15:53:52;8.53;;;6.00;;
2934;SDS011;2462;51.456;7.248;2022-12-07T15:56:18;13.30;;;5.70;;
2934;SDS011;2462;51.456;7.248;2022-12-07T15:58:43;9.40;;;5.77;;
2934;SDS011;2462;51.456;7.248;2022-12-07T16:01:16;7.97;;;5.57;;
2934;SDS011;2462;51.456;7.248;2022-12-07T16:03:43;12.30;;;6.40;;
2934;SDS011;2462;51.456;7.248;2022-12-07T16:06:10;9.50;;;5.20;;
2934;SDS011;2462;51.456;7.248;2022-12-07T16:08:36;8.50;;;5.43;;
2934;SDS011;2462;51.456;7.248;2022-12-07T16:11:06;10.10;;;5.93;;
2934;SDS011;2462;51.456;7.248;2022-12-07T16:13:32;9.47;;;5.87;;
2934;SDS011;2462;51.456;7.248;2022-12-07T16:15:58;10.93;;;6.63;;
2934;SDS011;2462;51.456;7.248;2022-12-07T16:18:28;10.07;;;5.53;;
2934;SDS011;2462;51.456;7.248;2022-12-07T16:20:54;8.73;;;6.27;;
2934;SDS011;2462;51.456;7.248;2022-12-07T16:23:19;7.33;;;4.80;;
2934;SDS011;2462;51.456;7.248;2022-12-07T16:25:45;8.33;;;6.80;;
2934;SDS011;2462;51.456;7.248;2022-12-07T16:28:10;9.20;;;5.80;;
2934;SDS011;2462;51.456;7.248;2022-12-07T16:30:36;5.57;;;5.00;;
2934;SDS011;2462;51.456;7.248;2022-12-07T16:33:01;5.90;;;5.30;;
2934;SDS011;2462;51.456;7.248;2022-12-07T16:35:27;7.87;;;5.17;;
2934;SDS011;2462;51.456;7.248;2022-12-07T16:37:52;8.47;;;5.90;;
2934;SDS011;2462;51.456;7.248;2022-12-07T16:40:18;6.57;;;5.50;;
2934;SDS011;2462;51.456;7.248;2022-12-07T16:42:43;6.73;;;5.63;;